CW6020 Teulada ES current weather conditions

sailwx.info

Air temperature 22.8° C
Dewpoint 21.2° C

Last reported at 2015-Aug-28 01:46 UTC.
Time now 2015-Aug-28 02:19 UTC

Location: N 38°44' E 000°06'.
View on Google Maps.

See reports from other nearby stations

  
Tides and Currents Weather Stations Pressure Air Temp Water Temp Dewpoint Dewpoint Depression Visibility Wind Speed Wind Dir Waves Ship Positions
date/time (UTC)wind fromknots sea level pressurealtimeterstation pressurevisibilityair tempwater tempwave heightnotes
2015-Aug-28 01:46 22.8
2015-Aug-28 01:36 315 22.8
2015-Aug-28 01:26 270 22.8
2015-Aug-28 01:16 315 22.8
2015-Aug-28 01:06 22.8
2015-Aug-28 00:56 315 22.8
2015-Aug-28 00:46 22.8
2015-Aug-28 00:36 315 22.8
2015-Aug-28 00:26 23.3
2015-Aug-28 00:16 23.3
2015-Aug-28 00:06 23.3
2015-Aug-27 23:56 270 23.3
2015-Aug-27 23:46 045 1 gusting 2 23.3
2015-Aug-27 23:36 23.3
2015-Aug-27 23:26 23.3
2015-Aug-27 23:16 23.3
2015-Aug-27 23:06 23.9
2015-Aug-27 22:56 23.9
2015-Aug-27 22:46 135 23.9
2015-Aug-27 22:36 180 0 gusting 2 23.3
2015-Aug-27 22:26 090 23.9
2015-Aug-27 22:16 135 0 gusting 1 23.9
2015-Aug-27 22:06 23.9
2015-Aug-27 21:56 225 0 gusting 1 23.9
2015-Aug-27 21:46 180 23.9
2015-Aug-27 21:36 315 23.9
2015-Aug-27 21:26 225 0 gusting 2 23.9
2015-Aug-27 21:16 270 0 gusting 2 23.9
2015-Aug-27 21:06 225 2 gusting 5 23.9
2015-Aug-27 20:56 225 2 gusting 4 23.9
2015-Aug-27 20:46 270 0 gusting 2 23.9
2015-Aug-27 20:36 180 1 gusting 2 24.4
2015-Aug-27 20:26 270 1 gusting 2 24.4
2015-Aug-27 20:16 270 0 gusting 2 24.4
2015-Aug-27 20:06 315 2 gusting 4 24.4
2015-Aug-27 19:56 225 1 gusting 2 25.0
2015-Aug-27 19:46 270 1 gusting 2 24.4
2015-Aug-27 19:36 225 1 gusting 2 25.0
2015-Aug-27 19:26 270 3 gusting 5 25.0
2015-Aug-27 19:16 270 1 gusting 2 25.0
2015-Aug-27 19:06 225 1 gusting 2 25.0
2015-Aug-27 18:56 225 3 gusting 5 25.0
2015-Aug-27 18:46 225 2 gusting 4 25.6
2015-Aug-27 18:36 180 6 gusting 7 25.6
2015-Aug-27 18:26 180 5 gusting 6 26.1
2015-Aug-27 18:16 270 2 gusting 3 26.1
2015-Aug-27 18:06 180 4 gusting 6 27.2
2015-Aug-27 17:56 135 7 gusting 9 27.8
2015-Aug-27 17:46 180 5 gusting 7 28.3
2015-Aug-27 17:36 315 4 gusting 6 28.3
2015-Aug-27 17:26 180 3 gusting 6 28.9
2015-Aug-27 17:16 292 2 gusting 5 28.3
2015-Aug-27 17:06 247 5 gusting 10 28.9
2015-Aug-27 16:56 270 3 gusting 6 28.9
2015-Aug-27 16:46 225 4 gusting 6 29.4
2015-Aug-27 16:36 180 5 gusting 9 29.4
2015-Aug-27 16:26 225 6 gusting 10 29.4
2015-Aug-27 16:16 180 6 gusting 8 29.4
2015-Aug-27 16:06 225 6 gusting 7 30.0
2015-Aug-27 15:56 225 9 gusting 11 30.0
2015-Aug-27 15:46 180 6 gusting 8 30.0
2015-Aug-27 15:36 225 5 gusting 10 30.0
2015-Aug-27 15:26 270 5 gusting 6 31.1
2015-Aug-27 15:16 180 5 gusting 8 31.1
2015-Aug-27 15:06 180 6 gusting 8 31.1
2015-Aug-27 14:56 225 6 gusting 10 31.1
2015-Aug-27 14:46 180 7 gusting 11 31.7
2015-Aug-27 14:36 090 8 gusting 12 31.7
2015-Aug-27 14:26 225 7 gusting 10 31.1
2015-Aug-27 14:16 022 7 gusting 13 31.7
2015-Aug-27 14:06 225 6 gusting 9 31.1
2015-Aug-27 13:56 31.1
2015-Aug-27 13:46 180 5 gusting 7 31.1
2015-Aug-27 13:36 247 8 gusting 12 31.1
2015-Aug-27 13:26 180 7 gusting 10 31.1
2015-Aug-27 13:16 180 6 gusting 9 31.1
2015-Aug-27 13:06 202 6 gusting 7 30.6
2015-Aug-27 12:56 315 7 gusting 10 30.6
2015-Aug-27 12:46 180 7 gusting 12 30.6
2015-Aug-27 12:36 180 8 gusting 13 30.6
2015-Aug-27 12:26 315 6 gusting 13 30.0
2015-Aug-27 12:16 225 6 gusting 12 30.0
2015-Aug-27 12:06 180 9 gusting 13 30.0
2015-Aug-27 11:56 090 6 gusting 9 30.0
2015-Aug-27 11:46 30.0
2015-Aug-27 11:36 247 6 gusting 10 30.0
2015-Aug-27 11:26 180 5 gusting 8 30.0
2015-Aug-27 11:16 135 6 gusting 7 30.0
2015-Aug-27 11:06 225 5 gusting 7 28.9
2015-Aug-27 10:56 225 5 gusting 9 30.0
2015-Aug-27 10:46 225 8 gusting 13 30.0
2015-Aug-27 10:36 180 5 gusting 6 30.6
2015-Aug-27 10:26 225 4 gusting 6 30.6
2015-Aug-27 10:16 180 5 gusting 8 30.6
2015-Aug-27 10:06 135 5 gusting 6 31.1
2015-Aug-27 09:56 135 4 gusting 5 30.6
2015-Aug-27 09:46 135 1 gusting 3 30.6
2015-Aug-27 09:36 180 3 gusting 5 30.0
2015-Aug-27 09:26 225 2 gusting 4 29.4
2015-Aug-27 09:16 090 0 gusting 1 28.9
2015-Aug-27 09:06 045 2 gusting 4 28.9
2015-Aug-27 08:58 180 2 gusting 5 28.9
2015-Aug-27 08:46 292 1 gusting 3 28.9
2015-Aug-27 08:36 135 2 gusting 4 28.9
2015-Aug-27 08:26 135 1 gusting 2 28.3
2015-Aug-27 08:16 180 2 gusting 4 28.3
2015-Aug-27 08:06 180 1 gusting 2 27.2
2015-Aug-27 07:56 180 2 gusting 3 26.7
2015-Aug-27 07:46 315 0 gusting 3 25.6
2015-Aug-27 07:36 270 0 gusting 1 25.0
2015-Aug-27 07:26 090 23.3
2015-Aug-27 07:16 22.8
2015-Aug-27 07:06 21.7
2015-Aug-27 06:56 21.7
2015-Aug-27 06:46 135 21.1
2015-Aug-27 06:36 135 20.6
2015-Aug-27 06:26 20.6
2015-Aug-27 06:16 20.6
2015-Aug-27 06:06 090 20.6
2015-Aug-27 05:56 090 20.6
2015-Aug-27 05:46 090 20.6
2015-Aug-27 05:36 135 0 gusting 2 20.6
2015-Aug-27 05:26 090 0 gusting 2 21.1
2015-Aug-27 05:16 135 0 gusting 1 21.7
2015-Aug-27 05:06 135 0 gusting 1 21.1
2015-Aug-27 04:56 090 0 gusting 1 21.7
2015-Aug-27 04:46 21.7
2015-Aug-27 04:36 090 21.1
2015-Aug-27 04:26 045 21.1
2015-Aug-27 04:16 090 21.1
2015-Aug-27 04:06 090 0 gusting 1 20.6
2015-Aug-27 03:56 20.6
2015-Aug-27 03:46 090 20.6
2015-Aug-27 03:36 270 20.6
2015-Aug-27 03:26 180 0 gusting 1 20.6
2015-Aug-27 03:16 090 0 gusting 1 20.6
2015-Aug-27 03:06 090 21.1
2015-Aug-27 02:56 21.1
2015-Aug-27 02:46 135 21.1
2015-Aug-27 02:36 135 0 gusting 1 21.7
2015-Aug-27 02:26 090 21.7
2015-Aug-27 02:16 135 0 gusting 1 21.7
2015-Aug-27 02:06 22.2
2015-Aug-27 01:56 22.2
2015-Aug-27 01:46 135 22.8
2015-Aug-27 01:36 045 22.8
2015-Aug-27 01:26 045 23.3
2015-Aug-27 01:16 337 0 gusting 2 23.3
2015-Aug-27 01:06 23.3
2015-Aug-27 00:56 22.8
2015-Aug-27 00:46 315 0 gusting 2 22.8
2015-Aug-27 00:36 315 23.3
2015-Aug-27 00:26 270 0 gusting 2 23.3
2015-Aug-27 00:16 202 1 gusting 3 23.3
2015-Aug-27 00:06 225 2 gusting 5 23.9
2015-Aug-26 23:56 180 2 gusting 3 23.9
2015-Aug-26 23:46 315 2 gusting 6 23.9
2015-Aug-26 23:36 225 2 gusting 4 23.9
2015-Aug-26 23:26 180 2 gusting 5 23.9
2015-Aug-26 23:16 225 4 gusting 6 23.9
2015-Aug-26 23:06 225 2 gusting 4 23.9
2015-Aug-26 22:56 180 4 gusting 6 23.9
2015-Aug-26 22:46 315 2 gusting 4 23.9
2015-Aug-26 22:36 180 3 gusting 5 23.9
2015-Aug-26 22:26 225 5 gusting 6 23.9
2015-Aug-26 22:16 225 5 gusting 6 23.9
2015-Aug-26 22:06 135 2 gusting 4 23.9
2015-Aug-26 21:56 225 2 gusting 4 23.9
2015-Aug-26 21:46 225 1 gusting 3 23.9
2015-Aug-26 21:36 225 4 gusting 7 24.4
2015-Aug-26 21:26 225 2 gusting 4 24.4
2015-Aug-26 21:16 180 2 gusting 5 24.4
2015-Aug-26 21:06 225 3 gusting 5 24.4
2015-Aug-26 20:56 225 1 gusting 2 24.4
2015-Aug-26 20:46 180 3 gusting 6 24.4
2015-Aug-26 20:36 180 1 gusting 3 24.4
2015-Aug-26 20:26 270 2 gusting 3 24.4
2015-Aug-26 20:16 225 1 gusting 2 24.4
2015-Aug-26 20:06 315 2 gusting 3 24.4
2015-Aug-26 19:56 270 2 gusting 4 24.4
2015-Aug-26 19:46 225 2 gusting 3 24.4
2015-Aug-26 19:36 225 1 gusting 4 25.0
2015-Aug-26 19:26 225 2 gusting 4 25.0
2015-Aug-26 19:16 315 1 gusting 2 25.0
2015-Aug-26 19:06 315 1 gusting 2 25.0
2015-Aug-26 18:56 315 2 gusting 4 25.0
2015-Aug-26 18:46 135 1 gusting 3 25.6
2015-Aug-26 18:36 180 2 gusting 3 25.6
2015-Aug-26 18:26 090 4 gusting 6 26.1
2015-Aug-26 18:16 135 3 gusting 4 26.7
2015-Aug-26 18:06 180 2 gusting 3 27.2
2015-Aug-26 17:56 180 5 gusting 7 27.2
2015-Aug-26 17:46 225 5 gusting 7 27.8
2015-Aug-26 17:36 180 4 gusting 6 28.3
2015-Aug-26 17:26 180 4 gusting 6 28.3
2015-Aug-26 16:56 225 4 gusting 6 28.9
2015-Aug-26 16:46 135 5 gusting 7 29.4
2015-Aug-26 16:36 225 6 gusting 9 30.0
2015-Aug-26 16:26 180 4 gusting 6 30.0
2015-Aug-26 16:16 135 4 gusting 6 30.0
2015-Aug-26 16:06 180 3 gusting 6 30.6
2015-Aug-26 15:56 045 3 gusting 6 30.6
2015-Aug-26 15:46 180 5 gusting 6 30.6
2015-Aug-26 15:36 180 3 gusting 7 30.6
2015-Aug-26 15:26 202 6 gusting 10 31.1
2015-Aug-26 15:16 247 5 gusting 6 31.1
2015-Aug-26 15:06 180 3 gusting 5 31.7
2015-Aug-26 14:56 180 5 gusting 7 31.7
2015-Aug-26 14:46 090 4 gusting 8 31.7
2015-Aug-26 14:36 180 5 gusting 6 31.7
2015-Aug-26 14:26 180 5 gusting 7 31.7
2015-Aug-26 14:16 135 5 gusting 8 31.7
2015-Aug-26 14:06 135 5 gusting 7 32.2
2015-Aug-26 13:56 135 6 gusting 8 32.2
2015-Aug-26 13:46 225 2 gusting 4 32.2
2015-Aug-26 13:36 180 5 gusting 7 32.8
2015-Aug-26 13:26 180 5 gusting 7 32.8
2015-Aug-26 13:16 180 5 gusting 8 32.2
2015-Aug-26 13:06 180 2 gusting 5 32.8
2015-Aug-26 12:56 180 0 gusting 2 32.8
2015-Aug-26 12:46 180 4 gusting 6 32.2
2015-Aug-26 12:36 135 5 gusting 7 31.7
2015-Aug-26 12:26 180 6 gusting 10 32.2
2015-Aug-26 12:16 135 2 gusting 5 31.7
2015-Aug-26 12:06 315 2 gusting 4 31.7
2015-Aug-26 11:56 180 5 gusting 6 32.2
2015-Aug-26 11:46 180 3 gusting 6 32.2
2015-Aug-26 11:36 135 4 gusting 7 31.7
2015-Aug-26 11:26 180 5 gusting 7 32.2
2015-Aug-26 11:16 135 3 gusting 5 31.7
2015-Aug-26 11:06 225 5 gusting 6 31.7
2015-Aug-26 10:56 180 2 gusting 4 31.7
2015-Aug-26 10:46 225 4 gusting 6 31.7
2015-Aug-26 10:36 135 2 gusting 6 31.7
2015-Aug-26 10:26 225 3 gusting 6 31.7
2015-Aug-26 10:16 180 6 gusting 9 31.7
2015-Aug-26 10:06 135 6 gusting 7 31.1
2015-Aug-26 09:56 225 3 gusting 5 31.1
2015-Aug-26 09:46 315 3 gusting 6 30.6
2015-Aug-26 09:36 135 2 gusting 5 30.6
2015-Aug-26 09:26 270 2 gusting 4 30.6
2015-Aug-26 09:16 135 4 gusting 5 30.6
2015-Aug-26 09:06 090 1 gusting 3 30.0
2015-Aug-26 08:53 135 28.9
2015-Aug-26 08:41 292 27.8
2015-Aug-26 08:31 135 1 gusting 2 28.3
2015-Aug-26 08:21 135 0 gusting 2 28.9
2015-Aug-26 08:11 090 0 gusting 2 28.3
2015-Aug-26 08:01 135 2 gusting 3 27.8
2015-Aug-26 07:51 180 1 gusting 2 27.2
2015-Aug-26 07:41 270 26.1
2015-Aug-26 07:31 090 25.6
2015-Aug-26 07:21 315 24.4
2015-Aug-26 07:11 315 23.3
2015-Aug-26 07:01 180 22.8
2015-Aug-26 06:51 22.2
2015-Aug-26 06:41 21.7
2015-Aug-26 06:31 21.7
2015-Aug-26 06:21 21.1
2015-Aug-26 06:11 090 21.1
2015-Aug-26 06:01 21.1
2015-Aug-26 05:51 135 21.1
2015-Aug-26 05:41 090 21.1
2015-Aug-26 05:31 090 21.1
2015-Aug-26 05:21 135 21.1
2015-Aug-26 05:11 21.1
2015-Aug-26 05:01 21.1
2015-Aug-26 04:51 135 0 gusting 1 21.1
2015-Aug-26 04:41 090 21.1
2015-Aug-26 04:31 21.1
2015-Aug-26 04:21 21.7
2015-Aug-26 04:11 21.7
2015-Aug-26 04:01 21.7
2015-Aug-26 03:51 21.7
2015-Aug-26 03:41 21.7
2015-Aug-26 03:31 21.7
2015-Aug-26 03:21 21.7
2015-Aug-26 03:11 21.7
2015-Aug-26 03:01 21.7
2015-Aug-26 02:51 21.7
2015-Aug-26 02:41 21.7
2015-Aug-26 02:31 22.2
2015-Aug-26 02:21 22.2
2015-Aug-26 02:11 22.2
2015-Aug-26 02:01 22.2